sensor_id;sensor_type;location;lat;lon;timestamp;P1;durP1;ratioP1;P2;durP2;ratioP2
20731;SDS011;10527;52.124;5.196;2024-02-26T00:01:31;3.80;;;2.73;;
20731;SDS011;10527;52.124;5.196;2024-02-26T00:04:00;2.60;;;1.90;;
20731;SDS011;10527;52.124;5.196;2024-02-26T00:06:29;3.03;;;2.43;;
20731;SDS011;10527;52.124;5.196;2024-02-26T00:08:58;2.97;;;2.20;;
20731;SDS011;10527;52.124;5.196;2024-02-26T00:11:25;2.10;;;1.80;;
20731;SDS011;10527;52.124;5.196;2024-02-26T00:13:53;2.40;;;2.17;;
20731;SDS011;10527;52.124;5.196;2024-02-26T00:16:20;3.53;;;2.00;;
20731;SDS011;10527;52.124;5.196;2024-02-26T00:18:49;2.43;;;2.07;;
20731;SDS011;10527;52.124;5.196;2024-02-26T00:21:16;3.43;;;1.77;;
20731;SDS011;10527;52.124;5.196;2024-02-26T00:23:44;3.20;;;2.13;;
20731;SDS011;10527;52.124;5.196;2024-02-26T00:26:12;3.37;;;2.40;;
20731;SDS011;10527;52.124;5.196;2024-02-26T00:28:39;3.10;;;2.33;;
20731;SDS011;10527;52.124;5.196;2024-02-26T00:31:06;2.97;;;2.10;;
20731;SDS011;10527;52.124;5.196;2024-02-26T00:33:34;4.27;;;2.30;;
20731;SDS011;10527;52.124;5.196;2024-02-26T00:36:02;4.23;;;3.03;;
20731;SDS011;10527;52.124;5.196;2024-02-26T00:38:30;5.17;;;2.70;;
20731;SDS011;10527;52.124;5.196;2024-02-26T00:40:57;5.43;;;2.70;;
20731;SDS011;10527;52.124;5.196;2024-02-26T00:43:25;2.77;;;2.30;;
20731;SDS011;10527;52.124;5.196;2024-02-26T00:45:52;3.43;;;2.40;;
20731;SDS011;10527;52.124;5.196;2024-02-26T00:48:20;4.97;;;2.90;;
20731;SDS011;10527;52.124;5.196;2024-02-26T00:50:48;3.17;;;2.70;;
20731;SDS011;10527;52.124;5.196;2024-02-26T00:53:15;3.07;;;2.67;;
20731;SDS011;10527;52.124;5.196;2024-02-26T00:55:42;2.70;;;2.33;;
20731;SDS011;10527;52.124;5.196;2024-02-26T00:58:10;4.03;;;3.13;;
20731;SDS011;10527;52.124;5.196;2024-02-26T01:00:37;3.37;;;2.70;;
20731;SDS011;10527;52.124;5.196;2024-02-26T01:03:05;4.53;;;2.83;;
20731;SDS011;10527;52.124;5.196;2024-02-26T01:05:32;3.93;;;3.20;;
20731;SDS011;10527;52.124;5.196;2024-02-26T01:08:00;3.63;;;3.03;;
20731;SDS011;10527;52.124;5.196;2024-02-26T01:10:27;4.10;;;3.20;;
20731;SDS011;10527;52.124;5.196;2024-02-26T01:12:55;3.00;;;2.77;;
20731;SDS011;10527;52.124;5.196;2024-02-26T01:15:22;3.10;;;2.80;;
20731;SDS011;10527;52.124;5.196;2024-02-26T01:17:51;3.30;;;2.90;;
20731;SDS011;10527;52.124;5.196;2024-02-26T01:20:18;3.07;;;2.77;;
20731;SDS011;10527;52.124;5.196;2024-02-26T01:22:46;3.70;;;3.07;;
20731;SDS011;10527;52.124;5.196;2024-02-26T01:25:14;3.97;;;3.17;;
20731;SDS011;10527;52.124;5.196;2024-02-26T01:27:42;5.20;;;3.33;;
20731;SDS011;10527;52.124;5.196;2024-02-26T01:30:10;4.70;;;3.03;;
20731;SDS011;10527;52.124;5.196;2024-02-26T01:32:38;4.07;;;2.90;;
20731;SDS011;10527;52.124;5.196;2024-02-26T01:35:06;3.40;;;3.10;;
20731;SDS011;10527;52.124;5.196;2024-02-26T01:37:36;5.70;;;3.30;;
20731;SDS011;10527;52.124;5.196;2024-02-26T01:40:05;5.83;;;3.30;;
20731;SDS011;10527;52.124;5.196;2024-02-26T01:42:33;4.47;;;3.20;;
20731;SDS011;10527;52.124;5.196;2024-02-26T01:45:01;2.67;;;2.47;;
20731;SDS011;10527;52.124;5.196;2024-02-26T01:47:29;3.57;;;3.27;;
20731;SDS011;10527;52.124;5.196;2024-02-26T01:49:57;4.53;;;3.30;;
20731;SDS011;10527;52.124;5.196;2024-02-26T01:52:25;3.63;;;3.33;;
20731;SDS011;10527;52.124;5.196;2024-02-26T01:54:53;3.60;;;3.30;;
20731;SDS011;10527;52.124;5.196;2024-02-26T01:57:20;3.93;;;3.27;;
20731;SDS011;10527;52.124;5.196;2024-02-26T01:59:48;3.67;;;3.30;;
20731;SDS011;10527;52.124;5.196;2024-02-26T02:02:16;3.67;;;3.37;;
20731;SDS011;10527;52.124;5.196;2024-02-26T02:04:44;5.97;;;4.00;;
20731;SDS011;10527;52.124;5.196;2024-02-26T02:07:11;4.33;;;3.93;;
20731;SDS011;10527;52.124;5.196;2024-02-26T02:09:39;4.80;;;3.73;;
20731;SDS011;10527;52.124;5.196;2024-02-26T02:12:07;4.03;;;3.73;;
20731;SDS011;10527;52.124;5.196;2024-02-26T02:14:36;4.67;;;4.03;;
20731;SDS011;10527;52.124;5.196;2024-02-26T02:17:03;4.93;;;3.80;;
20731;SDS011;10527;52.124;5.196;2024-02-26T02:19:31;5.50;;;3.80;;
20731;SDS011;10527;52.124;5.196;2024-02-26T02:21:59;5.00;;;4.50;;
20731;SDS011;10527;52.124;5.196;2024-02-26T02:24:27;5.83;;;4.07;;
20731;SDS011;10527;52.124;5.196;2024-02-26T02:26:54;4.93;;;4.43;;
20731;SDS011;10527;52.124;5.196;2024-02-26T02:29:22;4.70;;;3.63;;
20731;SDS011;10527;52.124;5.196;2024-02-26T02:31:50;6.57;;;4.87;;
20731;SDS011;10527;52.124;5.196;2024-02-26T02:34:18;5.80;;;4.50;;
20731;SDS011;10527;52.124;5.196;2024-02-26T02:36:51;6.53;;;5.27;;
20731;SDS011;10527;52.124;5.196;2024-02-26T02:39:18;5.83;;;4.63;;
20731;SDS011;10527;52.124;5.196;2024-02-26T02:41:47;5.73;;;4.63;;
20731;SDS011;10527;52.124;5.196;2024-02-26T02:44:15;6.00;;;5.37;;
20731;SDS011;10527;52.124;5.196;2024-02-26T02:46:42;6.93;;;4.97;;
20731;SDS011;10527;52.124;5.196;2024-02-26T02:49:10;5.73;;;4.90;;
20731;SDS011;10527;52.124;5.196;2024-02-26T02:51:38;6.67;;;5.20;;
20731;SDS011;10527;52.124;5.196;2024-02-26T02:54:05;6.70;;;5.20;;
20731;SDS011;10527;52.124;5.196;2024-02-26T02:56:33;6.47;;;5.40;;
20731;SDS011;10527;52.124;5.196;2024-02-26T02:59:02;6.10;;;5.37;;
20731;SDS011;10527;52.124;5.196;2024-02-26T03:01:30;6.13;;;5.03;;
20731;SDS011;10527;52.124;5.196;2024-02-26T03:03:57;7.77;;;5.90;;
20731;SDS011;10527;52.124;5.196;2024-02-26T03:06:26;6.57;;;5.60;;
20731;SDS011;10527;52.124;5.196;2024-02-26T03:08:54;6.70;;;5.63;;
20731;SDS011;10527;52.124;5.196;2024-02-26T03:11:22;6.47;;;5.20;;
20731;SDS011;10527;52.124;5.196;2024-02-26T03:13:49;6.10;;;4.93;;
20731;SDS011;10527;52.124;5.196;2024-02-26T03:16:17;6.63;;;5.30;;
20731;SDS011;10527;52.124;5.196;2024-02-26T03:18:45;7.40;;;5.70;;
20731;SDS011;10527;52.124;5.196;2024-02-26T03:21:13;6.17;;;5.57;;
20731;SDS011;10527;52.124;5.196;2024-02-26T03:23:40;6.40;;;5.67;;
20731;SDS011;10527;52.124;5.196;2024-02-26T03:26:08;6.77;;;5.57;;
20731;SDS011;10527;52.124;5.196;2024-02-26T03:28:40;8.13;;;5.70;;
20731;SDS011;10527;52.124;5.196;2024-02-26T03:31:08;7.33;;;5.70;;
20731;SDS011;10527;52.124;5.196;2024-02-26T03:33:37;7.23;;;6.13;;
20731;SDS011;10527;52.124;5.196;2024-02-26T03:36:04;6.37;;;5.73;;
20731;SDS011;10527;52.124;5.196;2024-02-26T03:38:33;7.93;;;5.67;;
20731;SDS011;10527;52.124;5.196;2024-02-26T03:41:01;6.93;;;6.20;;
20731;SDS011;10527;52.124;5.196;2024-02-26T03:43:28;8.57;;;6.43;;
20731;SDS011;10527;52.124;5.196;2024-02-26T03:45:56;10.03;;;7.17;;
20731;SDS011;10527;52.124;5.196;2024-02-26T03:48:23;6.63;;;5.77;;
20731;SDS011;10527;52.124;5.196;2024-02-26T03:50:51;11.03;;;6.60;;
20731;SDS011;10527;52.124;5.196;2024-02-26T03:53:18;8.80;;;6.23;;
20731;SDS011;10527;52.124;5.196;2024-02-26T03:55:46;7.70;;;6.23;;
20731;SDS011;10527;52.124;5.196;2024-02-26T03:58:13;7.77;;;5.83;;
20731;SDS011;10527;52.124;5.196;2024-02-26T04:00:42;8.23;;;6.43;;
20731;SDS011;10527;52.124;5.196;2024-02-26T04:03:10;7.27;;;6.43;;
20731;SDS011;10527;52.124;5.196;2024-02-26T04:05:38;8.63;;;6.67;;
20731;SDS011;10527;52.124;5.196;2024-02-26T04:08:05;9.23;;;6.30;;
20731;SDS011;10527;52.124;5.196;2024-02-26T04:10:37;8.07;;;6.57;;
20731;SDS011;10527;52.124;5.196;2024-02-26T04:13:07;7.53;;;6.33;;
20731;SDS011;10527;52.124;5.196;2024-02-26T04:15:35;9.67;;;6.70;;
20731;SDS011;10527;52.124;5.196;2024-02-26T04:18:02;10.23;;;7.00;;
20731;SDS011;10527;52.124;5.196;2024-02-26T04:20:30;9.83;;;7.23;;
20731;SDS011;10527;52.124;5.196;2024-02-26T04:22:58;8.87;;;6.50;;
20731;SDS011;10527;52.124;5.196;2024-02-26T04:25:25;7.97;;;6.63;;
20731;SDS011;10527;52.124;5.196;2024-02-26T04:27:53;8.17;;;6.00;;
20731;SDS011;10527;52.124;5.196;2024-02-26T04:30:21;8.07;;;6.73;;
20731;SDS011;10527;52.124;5.196;2024-02-26T04:32:48;8.27;;;6.63;;
20731;SDS011;10527;52.124;5.196;2024-02-26T04:35:16;9.10;;;7.23;;
20731;SDS011;10527;52.124;5.196;2024-02-26T04:37:44;8.73;;;7.37;;
20731;SDS011;10527;52.124;5.196;2024-02-26T04:40:11;8.23;;;6.60;;
20731;SDS011;10527;52.124;5.196;2024-02-26T04:42:39;10.07;;;6.90;;
20731;SDS011;10527;52.124;5.196;2024-02-26T04:45:07;10.97;;;7.97;;
20731;SDS011;10527;52.124;5.196;2024-02-26T04:47:35;11.20;;;8.73;;
20731;SDS011;10527;52.124;5.196;2024-02-26T04:50:03;9.37;;;7.93;;
20731;SDS011;10527;52.124;5.196;2024-02-26T04:52:30;10.77;;;8.57;;
20731;SDS011;10527;52.124;5.196;2024-02-26T04:54:58;11.47;;;8.73;;
20731;SDS011;10527;52.124;5.196;2024-02-26T04:57:26;12.37;;;8.67;;
20731;SDS011;10527;52.124;5.196;2024-02-26T04:59:54;11.47;;;8.90;;
20731;SDS011;10527;52.124;5.196;2024-02-26T05:02:21;10.83;;;7.90;;
20731;SDS011;10527;52.124;5.196;2024-02-26T05:04:49;11.63;;;8.80;;
20731;SDS011;10527;52.124;5.196;2024-02-26T05:07:16;11.23;;;8.70;;
20731;SDS011;10527;52.124;5.196;2024-02-26T05:09:44;10.83;;;8.40;;
20731;SDS011;10527;52.124;5.196;2024-02-26T05:12:13;11.43;;;8.53;;
20731;SDS011;10527;52.124;5.196;2024-02-26T05:14:40;10.40;;;8.60;;
20731;SDS011;10527;52.124;5.196;2024-02-26T05:17:08;9.10;;;7.97;;
20731;SDS011;10527;52.124;5.196;2024-02-26T05:19:35;10.73;;;8.53;;
20731;SDS011;10527;52.124;5.196;2024-02-26T05:22:02;12.57;;;8.13;;
20731;SDS011;10527;52.124;5.196;2024-02-26T05:24:30;9.90;;;8.00;;
20731;SDS011;10527;52.124;5.196;2024-02-26T05:26:58;10.20;;;8.23;;
20731;SDS011;10527;52.124;5.196;2024-02-26T05:29:26;12.10;;;8.30;;
20731;SDS011;10527;52.124;5.196;2024-02-26T05:31:54;11.47;;;7.40;;
20731;SDS011;10527;52.124;5.196;2024-02-26T05:34:21;10.83;;;8.20;;
20731;SDS011;10527;52.124;5.196;2024-02-26T05:36:48;10.63;;;8.17;;
20731;SDS011;10527;52.124;5.196;2024-02-26T05:39:16;11.13;;;8.23;;
20731;SDS011;10527;52.124;5.196;2024-02-26T05:41:46;10.20;;;7.80;;
20731;SDS011;10527;52.124;5.196;2024-02-26T05:44:15;9.93;;;8.47;;
20731;SDS011;10527;52.124;5.196;2024-02-26T05:46:43;8.43;;;7.53;;
20731;SDS011;10527;52.124;5.196;2024-02-26T05:49:11;12.07;;;8.87;;
20731;SDS011;10527;52.124;5.196;2024-02-26T05:51:38;10.53;;;8.53;;
20731;SDS011;10527;52.124;5.196;2024-02-26T05:54:06;10.97;;;8.87;;
20731;SDS011;10527;52.124;5.196;2024-02-26T05:56:34;10.43;;;8.37;;
20731;SDS011;10527;52.124;5.196;2024-02-26T05:59:02;10.57;;;8.33;;
20731;SDS011;10527;52.124;5.196;2024-02-26T06:01:30;11.70;;;8.97;;
20731;SDS011;10527;52.124;5.196;2024-02-26T06:03:58;12.97;;;8.53;;
20731;SDS011;10527;52.124;5.196;2024-02-26T06:06:26;11.03;;;8.67;;
20731;SDS011;10527;52.124;5.196;2024-02-26T06:08:53;11.73;;;8.70;;
20731;SDS011;10527;52.124;5.196;2024-02-26T06:11:21;11.20;;;9.30;;
20731;SDS011;10527;52.124;5.196;2024-02-26T06:13:49;11.47;;;9.03;;
20731;SDS011;10527;52.124;5.196;2024-02-26T06:16:16;12.83;;;9.57;;
20731;SDS011;10527;52.124;5.196;2024-02-26T06:18:44;13.10;;;10.30;;
20731;SDS011;10527;52.124;5.196;2024-02-26T06:21:12;12.77;;;9.47;;
20731;SDS011;10527;52.124;5.196;2024-02-26T06:23:39;13.53;;;9.77;;
20731;SDS011;10527;52.124;5.196;2024-02-26T06:26:07;12.67;;;9.60;;
20731;SDS011;10527;52.124;5.196;2024-02-26T06:28:36;13.57;;;9.50;;
20731;SDS011;10527;52.124;5.196;2024-02-26T06:31:07;14.37;;;10.87;;
20731;SDS011;10527;52.124;5.196;2024-02-26T06:33:34;14.43;;;10.77;;
20731;SDS011;10527;52.124;5.196;2024-02-26T06:36:02;16.20;;;11.43;;
20731;SDS011;10527;52.124;5.196;2024-02-26T06:38:31;15.70;;;11.23;;
20731;SDS011;10527;52.124;5.196;2024-02-26T06:40:58;16.83;;;11.83;;
20731;SDS011;10527;52.124;5.196;2024-02-26T06:43:26;15.73;;;11.27;;
20731;SDS011;10527;52.124;5.196;2024-02-26T06:45:53;19.37;;;13.00;;
20731;SDS011;10527;52.124;5.196;2024-02-26T06:48:22;17.10;;;12.07;;
20731;SDS011;10527;52.124;5.196;2024-02-26T06:50:52;16.03;;;11.77;;
20731;SDS011;10527;52.124;5.196;2024-02-26T06:53:20;17.70;;;12.07;;
20731;SDS011;10527;52.124;5.196;2024-02-26T06:55:47;18.20;;;12.33;;
20731;SDS011;10527;52.124;5.196;2024-02-26T06:58:16;20.50;;;13.77;;
20731;SDS011;10527;52.124;5.196;2024-02-26T07:00:47;18.77;;;12.97;;
20731;SDS011;10527;52.124;5.196;2024-02-26T07:03:15;21.47;;;14.63;;
20731;SDS011;10527;52.124;5.196;2024-02-26T07:05:42;18.90;;;13.47;;
20731;SDS011;10527;52.124;5.196;2024-02-26T07:08:11;22.80;;;14.73;;
20731;SDS011;10527;52.124;5.196;2024-02-26T07:10:39;20.50;;;14.60;;
20731;SDS011;10527;52.124;5.196;2024-02-26T07:13:08;21.93;;;15.23;;
20731;SDS011;10527;52.124;5.196;2024-02-26T07:15:36;22.43;;;15.27;;
20731;SDS011;10527;52.124;5.196;2024-02-26T07:18:04;22.00;;;15.37;;
20731;SDS011;10527;52.124;5.196;2024-02-26T07:20:32;25.03;;;15.93;;
20731;SDS011;10527;52.124;5.196;2024-02-26T07:22:59;22.37;;;16.03;;
20731;SDS011;10527;52.124;5.196;2024-02-26T07:25:27;22.27;;;16.10;;
20731;SDS011;10527;52.124;5.196;2024-02-26T07:27:54;22.10;;;16.60;;
20731;SDS011;10527;52.124;5.196;2024-02-26T07:30:22;22.17;;;15.93;;
20731;SDS011;10527;52.124;5.196;2024-02-26T07:32:51;24.13;;;16.17;;
20731;SDS011;10527;52.124;5.196;2024-02-26T07:35:18;22.80;;;16.70;;
20731;SDS011;10527;52.124;5.196;2024-02-26T07:37:47;21.43;;;15.60;;
20731;SDS011;10527;52.124;5.196;2024-02-26T07:40:16;24.60;;;17.67;;
20731;SDS011;10527;52.124;5.196;2024-02-26T07:42:44;21.20;;;16.37;;
20731;SDS011;10527;52.124;5.196;2024-02-26T07:48:35;19.30;;;14.27;;
20731;SDS011;10527;52.124;5.196;2024-02-26T07:51:04;21.03;;;15.77;;
20731;SDS011;10527;52.124;5.196;2024-02-26T07:53:32;22.40;;;15.90;;
20731;SDS011;10527;52.124;5.196;2024-02-26T07:56:00;21.30;;;15.17;;
20731;SDS011;10527;52.124;5.196;2024-02-26T07:58:28;20.93;;;15.20;;
20731;SDS011;10527;52.124;5.196;2024-02-26T08:00:55;18.67;;;14.20;;
20731;SDS011;10527;52.124;5.196;2024-02-26T08:03:23;17.70;;;13.77;;
20731;SDS011;10527;52.124;5.196;2024-02-26T08:05:51;17.17;;;13.00;;
20731;SDS011;10527;52.124;5.196;2024-02-26T08:08:22;17.80;;;13.10;;
20731;SDS011;10527;52.124;5.196;2024-02-26T08:10:49;15.90;;;12.27;;
20731;SDS011;10527;52.124;5.196;2024-02-26T08:13:17;16.00;;;12.17;;
20731;SDS011;10527;52.124;5.196;2024-02-26T08:15:44;15.83;;;11.67;;
20731;SDS011;10527;52.124;5.196;2024-02-26T08:18:11;13.60;;;11.10;;
20731;SDS011;10527;52.124;5.196;2024-02-26T08:20:39;15.80;;;10.10;;
20731;SDS011;10527;52.124;5.196;2024-02-26T08:23:06;14.63;;;10.80;;
20731;SDS011;10527;52.124;5.196;2024-02-26T08:25:34;13.43;;;9.70;;
20731;SDS011;10527;52.124;5.196;2024-02-26T08:28:02;13.90;;;11.03;;
20731;SDS011;10527;52.124;5.196;2024-02-26T08:30:30;11.67;;;9.03;;
20731;SDS011;10527;52.124;5.196;2024-02-26T08:32:57;12.87;;;10.03;;
20731;SDS011;10527;52.124;5.196;2024-02-26T08:35:25;11.17;;;8.23;;
20731;SDS011;10527;52.124;5.196;2024-02-26T08:37:52;11.40;;;9.20;;
20731;SDS011;10527;52.124;5.196;2024-02-26T08:40:20;10.43;;;7.47;;
20731;SDS011;10527;52.124;5.196;2024-02-26T08:42:47;10.23;;;7.57;;
20731;SDS011;10527;52.124;5.196;2024-02-26T08:45:15;11.80;;;7.67;;
20731;SDS011;10527;52.124;5.196;2024-02-26T08:47:44;10.63;;;8.20;;
20731;SDS011;10527;52.124;5.196;2024-02-26T08:50:13;8.83;;;7.63;;
20731;SDS011;10527;52.124;5.196;2024-02-26T08:52:41;9.63;;;7.33;;
20731;SDS011;10527;52.124;5.196;2024-02-26T08:55:08;9.57;;;8.07;;
20731;SDS011;10527;52.124;5.196;2024-02-26T08:57:36;10.40;;;7.73;;
20731;SDS011;10527;52.124;5.196;2024-02-26T09:00:05;7.80;;;6.83;;
20731;SDS011;10527;52.124;5.196;2024-02-26T09:02:33;9.03;;;7.20;;
20731;SDS011;10527;52.124;5.196;2024-02-26T09:05:00;8.47;;;6.43;;
20731;SDS011;10527;52.124;5.196;2024-02-26T09:07:28;9.57;;;7.07;;
20731;SDS011;10527;52.124;5.196;2024-02-26T09:09:55;8.00;;;6.67;;
20731;SDS011;10527;52.124;5.196;2024-02-26T09:12:23;11.03;;;6.87;;
20731;SDS011;10527;52.124;5.196;2024-02-26T09:14:51;7.50;;;6.00;;
20731;SDS011;10527;52.124;5.196;2024-02-26T09:17:18;8.80;;;6.20;;
20731;SDS011;10527;52.124;5.196;2024-02-26T09:19:46;7.50;;;6.20;;
20731;SDS011;10527;52.124;5.196;2024-02-26T09:22:13;7.93;;;6.23;;
20731;SDS011;10527;52.124;5.196;2024-02-26T09:24:44;9.90;;;6.47;;
20731;SDS011;10527;52.124;5.196;2024-02-26T09:27:11;9.17;;;5.67;;
20731;SDS011;10527;52.124;5.196;2024-02-26T09:29:39;7.27;;;5.63;;
20731;SDS011;10527;52.124;5.196;2024-02-26T09:32:06;6.87;;;5.47;;
20731;SDS011;10527;52.124;5.196;2024-02-26T09:34:34;7.07;;;5.07;;
20731;SDS011;10527;52.124;5.196;2024-02-26T09:37:01;8.70;;;5.53;;
20731;SDS011;10527;52.124;5.196;2024-02-26T09:39:40;10.20;;;5.90;;
20731;SDS011;10527;52.124;5.196;2024-02-26T09:42:08;6.47;;;5.10;;
20731;SDS011;10527;52.124;5.196;2024-02-26T09:44:40;5.60;;;4.67;;
20731;SDS011;10527;52.124;5.196;2024-02-26T09:47:09;5.70;;;4.63;;
20731;SDS011;10527;52.124;5.196;2024-02-26T09:49:42;6.63;;;5.03;;
20731;SDS011;10527;52.124;5.196;2024-02-26T09:52:10;7.93;;;5.17;;
20731;SDS011;10527;52.124;5.196;2024-02-26T09:54:38;6.10;;;5.00;;
20731;SDS011;10527;52.124;5.196;2024-02-26T09:57:06;5.57;;;4.50;;
20731;SDS011;10527;52.124;5.196;2024-02-26T09:59:42;6.37;;;5.33;;
20731;SDS011;10527;52.124;5.196;2024-02-26T10:02:13;6.43;;;4.77;;
20731;SDS011;10527;52.124;5.196;2024-02-26T10:04:42;6.00;;;4.67;;
20731;SDS011;10527;52.124;5.196;2024-02-26T10:07:16;7.40;;;4.60;;
20731;SDS011;10527;52.124;5.196;2024-02-26T10:09:44;6.93;;;5.63;;
20731;SDS011;10527;52.124;5.196;2024-02-26T10:12:11;5.97;;;4.90;;
20731;SDS011;10527;52.124;5.196;2024-02-26T10:14:39;8.27;;;5.30;;
20731;SDS011;10527;52.124;5.196;2024-02-26T10:17:07;6.00;;;4.90;;
20731;SDS011;10527;52.124;5.196;2024-02-26T10:19:35;8.27;;;5.27;;
20731;SDS011;10527;52.124;5.196;2024-02-26T10:22:04;7.63;;;5.13;;
20731;SDS011;10527;52.124;5.196;2024-02-26T10:24:32;6.30;;;4.77;;
20731;SDS011;10527;52.124;5.196;2024-02-26T10:27:01;7.40;;;5.30;;
20731;SDS011;10527;52.124;5.196;2024-02-26T10:29:29;7.20;;;5.40;;
20731;SDS011;10527;52.124;5.196;2024-02-26T10:31:59;7.40;;;5.37;;
20731;SDS011;10527;52.124;5.196;2024-02-26T10:34:26;6.80;;;5.23;;
20731;SDS011;10527;52.124;5.196;2024-02-26T10:36:54;6.67;;;5.13;;
20731;SDS011;10527;52.124;5.196;2024-02-26T10:39:22;6.10;;;4.80;;
20731;SDS011;10527;52.124;5.196;2024-02-26T10:41:50;6.47;;;4.83;;
20731;SDS011;10527;52.124;5.196;2024-02-26T10:44:17;7.47;;;5.20;;
20731;SDS011;10527;52.124;5.196;2024-02-26T10:46:51;8.93;;;5.73;;
20731;SDS011;10527;52.124;5.196;2024-02-26T10:49:19;5.20;;;4.37;;
20731;SDS011;10527;52.124;5.196;2024-02-26T10:51:51;6.77;;;5.10;;
20731;SDS011;10527;52.124;5.196;2024-02-26T10:54:26;6.13;;;4.87;;
20731;SDS011;10527;52.124;5.196;2024-02-26T10:56:57;7.03;;;5.20;;
20731;SDS011;10527;52.124;5.196;2024-02-26T10:59:26;7.93;;;5.30;;
20731;SDS011;10527;52.124;5.196;2024-02-26T11:01:54;7.37;;;5.27;;
20731;SDS011;10527;52.124;5.196;2024-02-26T11:04:22;6.03;;;4.97;;
20731;SDS011;10527;52.124;5.196;2024-02-26T11:06:54;8.67;;;5.60;;
20731;SDS011;10527;52.124;5.196;2024-02-26T11:09:24;6.10;;;4.77;;
20731;SDS011;10527;52.124;5.196;2024-02-26T11:11:52;7.43;;;5.00;;
20731;SDS011;10527;52.124;5.196;2024-02-26T11:14:21;8.90;;;6.43;;
20731;SDS011;10527;52.124;5.196;2024-02-26T11:16:52;5.87;;;4.93;;
20731;SDS011;10527;52.124;5.196;2024-02-26T11:19:21;5.67;;;4.60;;
20731;SDS011;10527;52.124;5.196;2024-02-26T11:21:50;5.73;;;4.60;;
20731;SDS011;10527;52.124;5.196;2024-02-26T11:24:18;5.90;;;4.40;;
20731;SDS011;10527;52.124;5.196;2024-02-26T11:26:50;6.83;;;5.20;;
20731;SDS011;10527;52.124;5.196;2024-02-26T11:29:33;6.90;;;5.33;;
20731;SDS011;10527;52.124;5.196;2024-02-26T11:32:13;6.53;;;5.17;;
20731;SDS011;10527;52.124;5.196;2024-02-26T11:34:42;6.30;;;5.40;;
20731;SDS011;10527;52.124;5.196;2024-02-26T11:37:11;6.60;;;5.57;;
20731;SDS011;10527;52.124;5.196;2024-02-26T11:39:43;7.20;;;5.43;;
20731;SDS011;10527;52.124;5.196;2024-02-26T11:42:15;7.07;;;5.10;;
20731;SDS011;10527;52.124;5.196;2024-02-26T11:44:43;8.03;;;5.43;;
20731;SDS011;10527;52.124;5.196;2024-02-26T11:47:11;6.97;;;4.43;;
20731;SDS011;10527;52.124;5.196;2024-02-26T11:49:40;6.60;;;4.87;;
20731;SDS011;10527;52.124;5.196;2024-02-26T11:52:08;6.50;;;4.43;;
20731;SDS011;10527;52.124;5.196;2024-02-26T11:54:43;7.47;;;5.13;;
20731;SDS011;10527;52.124;5.196;2024-02-26T11:57:26;6.23;;;5.53;;
20731;SDS011;10527;52.124;5.196;2024-02-26T11:59:56;5.50;;;4.67;;
20731;SDS011;10527;52.124;5.196;2024-02-26T12:05:30;7.27;;;5.17;;
20731;SDS011;10527;52.124;5.196;2024-02-26T12:08:00;7.77;;;5.20;;
20731;SDS011;10527;52.124;5.196;2024-02-26T12:10:37;5.00;;;4.33;;
20731;SDS011;10527;52.124;5.196;2024-02-26T12:13:16;5.70;;;4.57;;
20731;SDS011;10527;52.124;5.196;2024-02-26T12:15:54;6.47;;;4.93;;
20731;SDS011;10527;52.124;5.196;2024-02-26T12:18:26;5.73;;;4.67;;
20731;SDS011;10527;52.124;5.196;2024-02-26T12:21:03;6.20;;;4.67;;
20731;SDS011;10527;52.124;5.196;2024-02-26T12:23:31;5.77;;;4.50;;
20731;SDS011;10527;52.124;5.196;2024-02-26T12:25:59;5.87;;;5.27;;
20731;SDS011;10527;52.124;5.196;2024-02-26T12:28:32;6.07;;;4.47;;
20731;SDS011;10527;52.124;5.196;2024-02-26T12:31:00;5.10;;;4.30;;
20731;SDS011;10527;52.124;5.196;2024-02-26T12:33:27;6.20;;;4.73;;
20731;SDS011;10527;52.124;5.196;2024-02-26T12:35:57;6.83;;;4.97;;
20731;SDS011;10527;52.124;5.196;2024-02-26T12:38:25;5.53;;;4.67;;
20731;SDS011;10527;52.124;5.196;2024-02-26T12:40:54;6.70;;;4.93;;
20731;SDS011;10527;52.124;5.196;2024-02-26T12:43:21;6.13;;;4.33;;
20731;SDS011;10527;52.124;5.196;2024-02-26T12:45:48;5.37;;;4.70;;
20731;SDS011;10527;52.124;5.196;2024-02-26T12:48:16;8.60;;;5.40;;
20731;SDS011;10527;52.124;5.196;2024-02-26T12:50:45;5.63;;;4.10;;
20731;SDS011;10527;52.124;5.196;2024-02-26T12:53:14;6.40;;;4.87;;
20731;SDS011;10527;52.124;5.196;2024-02-26T12:55:42;6.63;;;5.10;;
20731;SDS011;10527;52.124;5.196;2024-02-26T12:58:09;5.87;;;4.57;;
20731;SDS011;10527;52.124;5.196;2024-02-26T13:00:38;5.33;;;3.93;;
20731;SDS011;10527;52.124;5.196;2024-02-26T13:03:07;6.03;;;4.13;;
20731;SDS011;10527;52.124;5.196;2024-02-26T13:05:35;5.40;;;4.50;;
20731;SDS011;10527;52.124;5.196;2024-02-26T13:08:03;6.37;;;4.43;;
20731;SDS011;10527;52.124;5.196;2024-02-26T13:10:34;4.97;;;4.17;;
20731;SDS011;10527;52.124;5.196;2024-02-26T13:13:03;5.80;;;4.43;;
20731;SDS011;10527;52.124;5.196;2024-02-26T13:15:31;4.40;;;4.00;;
20731;SDS011;10527;52.124;5.196;2024-02-26T13:17:59;4.80;;;4.13;;
20731;SDS011;10527;52.124;5.196;2024-02-26T13:20:36;5.95;;;5.03;;
20731;SDS011;10527;52.124;5.196;2024-02-26T13:23:07;6.10;;;4.70;;
20731;SDS011;10527;52.124;5.196;2024-02-26T13:25:37;6.60;;;4.77;;
20731;SDS011;10527;52.124;5.196;2024-02-26T13:28:15;5.40;;;4.10;;
20731;SDS011;10527;52.124;5.196;2024-02-26T13:30:56;6.07;;;4.67;;
20731;SDS011;10527;52.124;5.196;2024-02-26T13:33:24;5.27;;;4.17;;
20731;SDS011;10527;52.124;5.196;2024-02-26T13:35:54;6.67;;;4.47;;
20731;SDS011;10527;52.124;5.196;2024-02-26T13:38:22;6.57;;;4.70;;
20731;SDS011;10527;52.124;5.196;2024-02-26T13:40:50;5.93;;;4.33;;
20731;SDS011;10527;52.124;5.196;2024-02-26T13:43:19;6.23;;;4.70;;
20731;SDS011;10527;52.124;5.196;2024-02-26T13:45:46;5.60;;;4.60;;
20731;SDS011;10527;52.124;5.196;2024-02-26T13:48:14;4.90;;;3.37;;
20731;SDS011;10527;52.124;5.196;2024-02-26T13:50:42;4.93;;;4.03;;
20731;SDS011;10527;52.124;5.196;2024-02-26T13:53:12;5.30;;;4.20;;
20731;SDS011;10527;52.124;5.196;2024-02-26T13:55:40;4.50;;;3.73;;
20731;SDS011;10527;52.124;5.196;2024-02-26T13:58:12;8.13;;;3.77;;
20731;SDS011;10527;52.124;5.196;2024-02-26T14:00:40;4.20;;;3.50;;
20731;SDS011;10527;52.124;5.196;2024-02-26T14:03:09;7.10;;;3.57;;
20731;SDS011;10527;52.124;5.196;2024-02-26T14:05:38;4.57;;;3.50;;
20731;SDS011;10527;52.124;5.196;2024-02-26T14:08:11;4.93;;;3.57;;
20731;SDS011;10527;52.124;5.196;2024-02-26T14:10:39;4.60;;;3.73;;
20731;SDS011;10527;52.124;5.196;2024-02-26T14:13:07;4.43;;;3.37;;
20731;SDS011;10527;52.124;5.196;2024-02-26T14:15:34;4.17;;;3.20;;
20731;SDS011;10527;52.124;5.196;2024-02-26T14:18:02;5.77;;;4.23;;
20731;SDS011;10527;52.124;5.196;2024-02-26T14:20:31;4.30;;;3.60;;
20731;SDS011;10527;52.124;5.196;2024-02-26T14:22:58;3.50;;;2.80;;
20731;SDS011;10527;52.124;5.196;2024-02-26T14:25:27;4.47;;;3.07;;
20731;SDS011;10527;52.124;5.196;2024-02-26T14:27:56;3.87;;;3.33;;
20731;SDS011;10527;52.124;5.196;2024-02-26T14:30:25;9.47;;;3.20;;
20731;SDS011;10527;52.124;5.196;2024-02-26T14:32:53;3.93;;;3.23;;
20731;SDS011;10527;52.124;5.196;2024-02-26T14:35:22;5.10;;;3.27;;
20731;SDS011;10527;52.124;5.196;2024-02-26T14:37:50;5.07;;;3.43;;
20731;SDS011;10527;52.124;5.196;2024-02-26T14:40:18;4.50;;;3.27;;
20731;SDS011;10527;52.124;5.196;2024-02-26T14:42:45;4.80;;;2.83;;
20731;SDS011;10527;52.124;5.196;2024-02-26T14:45:13;4.10;;;3.20;;
20731;SDS011;10527;52.124;5.196;2024-02-26T14:47:41;5.13;;;3.37;;
20731;SDS011;10527;52.124;5.196;2024-02-26T14:50:09;3.50;;;2.87;;
20731;SDS011;10527;52.124;5.196;2024-02-26T14:52:37;4.40;;;3.17;;
20731;SDS011;10527;52.124;5.196;2024-02-26T14:55:05;3.93;;;2.70;;
20731;SDS011;10527;52.124;5.196;2024-02-26T14:57:33;3.53;;;2.83;;